createdAt,value
2018-06-14T00:00:16.693Z,10.02
2018-06-14T00:02:16.771Z,9.98
2018-06-14T00:03:16.467Z,9.91
2018-06-14T00:04:16.433Z,9.91
2018-06-14T00:05:16.495Z,9.85
2018-06-14T00:06:16.465Z,9.78
2018-06-14T00:07:16.381Z,9.80
2018-06-14T00:08:16.727Z,9.77
2018-06-14T00:09:16.418Z,9.81
2018-06-14T00:10:16.431Z,9.72
2018-06-14T00:11:16.372Z,9.81
2018-06-14T00:12:16.421Z,9.70
2018-06-14T00:13:16.226Z,9.69
2018-06-14T00:14:16.966Z,9.67
2018-06-14T00:16:16.309Z,9.69
2018-06-14T00:17:16.179Z,9.67
2018-06-14T00:18:16.179Z,9.66
2018-06-14T00:19:16.113Z,9.73
2018-06-14T00:20:16.469Z,9.75
2018-06-14T00:21:16.472Z,9.69
2018-06-14T00:22:16.131Z,9.63
2018-06-14T00:23:16.100Z,9.75
2018-06-14T00:24:16.014Z,9.73
2018-06-14T00:25:16.069Z,9.73
2018-06-14T00:26:16.411Z,9.65
2018-06-14T00:28:16.011Z,9.69
2018-06-14T00:29:16.012Z,9.69
2018-06-14T00:30:16.045Z,9.83
2018-06-14T00:31:16.071Z,9.78
2018-06-14T00:32:17.023Z,9.80
2018-06-14T00:33:16.035Z,9.84
2018-06-14T00:34:17.480Z,9.83
2018-06-14T00:35:15.891Z,9.94
2018-06-14T00:38:16.180Z,9.99
2018-06-14T00:39:15.898Z,10.03
2018-06-14T00:40:15.846Z,10.17
2018-06-14T00:42:15.939Z,10.36
2018-06-14T00:43:15.794Z,10.36
2018-06-14T00:44:15.960Z,10.34
2018-06-14T00:46:15.651Z,10.31
2018-06-14T00:47:15.707Z,10.43
2018-06-14T00:48:15.603Z,10.42
2018-06-14T00:49:15.940Z,10.55
2018-06-14T00:50:15.655Z,10.61
2018-06-14T00:51:15.608Z,10.62
2018-06-14T00:52:15.938Z,10.73
2018-06-14T00:53:15.564Z,10.79
2018-06-14T00:54:15.568Z,10.73
2018-06-14T00:55:15.510Z,10.68
2018-06-14T00:56:15.558Z,10.72
2018-06-14T00:57:15.553Z,10.85
2018-06-14T00:58:15.506Z,10.90
2018-06-14T01:00:15.752Z,10.90
2018-06-14T01:01:15.411Z,10.98
2018-06-14T01:06:15.610Z,11.11
2018-06-14T01:07:15.266Z,11.11
2018-06-14T01:08:15.379Z,11.11
2018-06-14T01:09:15.269Z,11.19
2018-06-14T01:10:15.270Z,11.20
2018-06-14T01:11:15.215Z,11.23
2018-06-14T01:12:15.218Z,11.25
2018-06-14T01:13:15.476Z,11.28
2018-06-14T01:15:15.325Z,11.31
2018-06-14T01:16:15.316Z,11.19
2018-06-14T01:17:15.226Z,11.36
2018-06-14T01:18:15.268Z,11.18
2018-06-14T01:19:15.122Z,11.25
2018-06-14T01:20:15.413Z,11.30
2018-06-14T01:21:15.028Z,11.27
2018-06-14T01:22:15.091Z,11.28
2018-06-14T01:23:15.034Z,11.33
2018-06-14T01:24:15.198Z,11.30
2018-06-14T01:25:15.175Z,11.22
2018-06-14T01:26:15.274Z,11.34
2018-06-14T01:27:14.948Z,11.30
2018-06-14T01:28:15.028Z,11.30
2018-06-14T01:29:14.943Z,11.34
2018-06-14T01:30:14.875Z,11.28
2018-06-14T01:31:14.855Z,11.33
2018-06-14T01:32:15.185Z,11.40
2018-06-14T01:33:14.835Z,11.25
2018-06-14T01:34:14.836Z,11.31
2018-06-14T01:35:14.834Z,11.37
2018-06-14T01:36:15.555Z,11.33
2018-06-14T01:37:14.762Z,11.31
2018-06-14T01:38:15.075Z,11.37
2018-06-14T01:39:14.834Z,11.33
2018-06-14T01:40:14.744Z,11.38
2018-06-14T01:41:14.749Z,11.27
2018-06-14T01:42:14.795Z,11.33
2018-06-14T01:44:15.079Z,11.46
2018-06-14T01:45:14.739Z,11.46
2018-06-14T01:46:14.738Z,11.40
2018-06-14T01:47:14.549Z,11.41
2018-06-14T01:48:14.653Z,11.45
2018-06-14T01:49:14.595Z,11.46
2018-06-14T01:50:14.789Z,11.51
2018-06-14T01:51:14.547Z,11.51
2018-06-14T01:52:14.518Z,11.51
2018-06-14T01:54:14.466Z,11.51
2018-06-14T01:55:14.403Z,11.43
2018-06-14T01:58:14.705Z,11.37
2018-06-14T01:59:14.402Z,11.40
2018-06-14T02:00:14.406Z,11.40
2018-06-14T02:01:14.368Z,11.54
2018-06-14T02:02:14.355Z,11.45
2018-06-14T02:03:14.259Z,11.54
2018-06-14T02:04:14.247Z,11.51
2018-06-14T02:05:14.595Z,11.54
2018-06-14T02:06:14.366Z,11.51
2018-06-14T02:07:14.286Z,11.45
2018-06-14T02:08:14.192Z,11.54
2018-06-14T02:09:14.307Z,11.54
2018-06-14T02:10:14.142Z,11.56
2018-06-14T02:11:14.214Z,11.38
2018-06-14T02:12:14.548Z,11.43
2018-06-14T02:13:14.115Z,11.40
2018-06-14T02:16:14.549Z,11.46
2018-06-14T02:18:14.599Z,11.54
2018-06-14T02:19:14.055Z,11.48
2018-06-14T02:20:14.068Z,11.51
2018-06-14T02:21:14.116Z,11.59
2018-06-14T02:22:13.949Z,11.62
2018-06-14T02:23:13.971Z,11.59
2018-06-14T02:24:14.067Z,11.59
2018-06-14T02:25:14.235Z,11.69
2018-06-14T02:26:13.972Z,11.61
2018-06-14T02:27:13.931Z,11.62
2018-06-14T02:28:14.115Z,11.69
2018-06-14T02:29:13.897Z,11.61
2018-06-14T02:30:13.875Z,11.64
2018-06-14T02:31:19.324Z,11.58
2018-06-14T02:32:14.852Z,11.54
2018-06-14T02:33:13.757Z,11.54
2018-06-14T02:34:13.827Z,11.51
2018-06-14T02:35:13.797Z,11.54
2018-06-14T02:36:13.834Z,11.59
2018-06-14T02:37:13.874Z,11.59
2018-06-14T02:38:13.683Z,11.67
2018-06-14T02:39:13.977Z,11.59
2018-06-14T02:40:13.779Z,11.70
2018-06-14T02:41:13.688Z,11.67
2018-06-14T02:42:13.784Z,11.67
2018-06-14T02:43:13.737Z,11.71
2018-06-14T02:44:14.405Z,11.82
2018-06-14T02:45:13.651Z,11.77
2018-06-14T02:47:13.882Z,11.87
2018-06-14T02:48:13.683Z,11.91
2018-06-14T02:49:13.731Z,11.91
2018-06-14T02:50:13.539Z,12.08
2018-06-14T02:52:13.445Z,12.07
2018-06-14T02:53:13.733Z,12.05
2018-06-14T02:55:13.553Z,12.13
2018-06-14T02:56:13.396Z,12.11
2018-06-14T02:57:13.419Z,12.11
2018-06-14T02:58:13.349Z,12.17
2018-06-14T02:59:13.620Z,12.11
2018-06-14T03:00:13.505Z,12.14
2018-06-14T03:01:13.411Z,12.17
2018-06-14T03:03:13.396Z,12.22
2018-06-14T03:04:13.306Z,12.21
2018-06-14T03:05:13.541Z,12.28
2018-06-14T03:06:13.204Z,12.22
2018-06-14T03:07:13.251Z,12.21
2018-06-14T03:08:13.254Z,12.21
2018-06-14T03:09:13.157Z,12.28
2018-06-14T03:10:13.136Z,12.23
2018-06-14T03:11:13.491Z,12.25
2018-06-14T03:12:13.108Z,12.25
2018-06-14T03:13:13.174Z,12.28
2018-06-14T03:14:13.086Z,12.22
2018-06-14T03:15:13.165Z,12.21
2018-06-14T03:16:13.156Z,12.22
2018-06-14T03:17:13.385Z,12.21
2018-06-14T03:18:13.106Z,12.21
2018-06-14T03:19:13.059Z,12.29
2018-06-14T03:20:13.013Z,12.25
2018-06-14T03:21:13.011Z,12.32
2018-06-14T03:22:13.011Z,12.26
2018-06-14T03:23:13.278Z,12.32
2018-06-14T03:24:12.963Z,12.35
2018-06-14T03:25:13.011Z,12.36
2018-06-14T03:26:12.970Z,12.29
2018-06-14T03:27:12.971Z,12.32
2018-06-14T03:28:12.915Z,12.36
2018-06-14T03:29:13.154Z,12.36
2018-06-14T03:30:12.820Z,12.43
2018-06-14T03:31:13.024Z,12.32
2018-06-14T03:32:12.766Z,12.41
2018-06-14T03:33:12.804Z,12.40
2018-06-14T03:34:12.913Z,12.47
2018-06-14T03:35:12.916Z,12.44
2018-06-14T03:36:13.402Z,12.47
2018-06-14T03:37:12.819Z,12.50
2018-06-14T03:38:12.674Z,12.46
2018-06-14T03:39:12.653Z,12.53
2018-06-14T03:40:12.694Z,12.46
2018-06-14T03:42:12.955Z,12.46
2018-06-14T03:43:12.689Z,12.58
2018-06-14T03:44:12.724Z,12.55
2018-06-14T03:45:12.580Z,12.59
2018-06-14T03:46:12.830Z,12.61
2018-06-14T03:47:12.691Z,12.62
2018-06-14T03:49:12.868Z,12.63
2018-06-14T03:50:12.557Z,12.68
2018-06-14T03:51:12.531Z,12.71
2018-06-14T03:52:12.890Z,12.76
2018-06-14T03:53:12.480Z,12.73
2018-06-14T03:54:12.543Z,12.66
2018-06-14T03:55:12.444Z,12.71
2018-06-14T03:56:12.672Z,12.73
2018-06-14T03:57:12.381Z,12.76
2018-06-14T03:58:12.341Z,12.77
2018-06-14T03:59:12.388Z,12.72
2018-06-14T04:00:12.320Z,12.71
2018-06-14T04:02:12.645Z,12.69
2018-06-14T04:04:12.323Z,12.69
2018-06-14T04:05:12.227Z,12.71
2018-06-14T04:06:12.278Z,12.71
2018-06-14T04:07:12.255Z,12.76
2018-06-14T04:09:12.889Z,12.73
2018-06-14T04:10:12.345Z,12.77
2018-06-14T04:11:12.206Z,12.80
2018-06-14T04:12:12.192Z,12.76
2018-06-14T04:13:12.171Z,12.76
2018-06-14T04:14:12.204Z,12.86
2018-06-14T04:16:12.580Z,12.88
2018-06-14T04:18:12.098Z,12.87
2018-06-14T04:19:12.110Z,12.87
2018-06-14T04:20:12.050Z,12.96
2018-06-14T04:21:12.098Z,12.87
2018-06-14T04:23:12.414Z,12.96
2018-06-14T04:24:11.954Z,12.88
2018-06-14T04:25:11.906Z,12.88
2018-06-14T04:26:11.975Z,12.86
2018-06-14T04:27:11.906Z,12.86
2018-06-14T04:28:11.923Z,12.93
2018-06-14T04:29:12.200Z,13.04
2018-06-14T04:30:11.817Z,12.98
2018-06-14T04:31:11.812Z,13.01
2018-06-14T04:32:11.810Z,12.95
2018-06-14T04:33:11.772Z,12.87
2018-06-14T04:34:11.763Z,12.84
2018-06-14T04:35:12.195Z,12.98
2018-06-14T04:36:11.762Z,12.99
2018-06-14T04:37:11.762Z,13.01
2018-06-14T04:38:11.694Z,13.02
2018-06-14T04:39:12.028Z,13.05
2018-06-14T04:40:11.754Z,13.02
2018-06-14T04:41:12.102Z,13.11
2018-06-14T04:42:11.715Z,13.08
2018-06-14T04:43:11.668Z,13.06
2018-06-14T04:44:11.618Z,13.09
2018-06-14T04:45:11.619Z,13.13
2018-06-14T04:46:11.619Z,13.14
2018-06-14T04:47:11.955Z,13.17
2018-06-14T04:48:11.549Z,13.21
2018-06-14T04:49:11.570Z,13.20
2018-06-14T04:50:11.523Z,13.32
2018-06-14T04:51:11.525Z,13.27
2018-06-14T04:52:11.476Z,13.27
2018-06-14T04:53:11.813Z,13.29
2018-06-14T04:55:11.477Z,13.43
2018-06-14T04:56:11.475Z,13.40
2018-06-14T04:57:11.426Z,13.49
2018-06-14T04:58:11.570Z,13.49
2018-06-14T04:59:11.929Z,13.49
2018-06-14T05:01:11.764Z,13.42
2018-06-14T05:02:11.390Z,13.49
2018-06-14T05:03:11.331Z,13.45
2018-06-14T05:04:11.339Z,13.49
2018-06-14T05:05:11.427Z,13.46
2018-06-14T05:06:11.571Z,13.47
2018-06-14T05:07:11.283Z,13.61
2018-06-14T05:08:11.229Z,13.55
2018-06-14T05:09:11.235Z,13.60
2018-06-14T05:10:11.235Z,13.61
2018-06-14T05:11:11.236Z,13.71
2018-06-14T05:12:11.170Z,13.79
2018-06-14T05:14:11.187Z,13.82
2018-06-14T05:15:11.143Z,13.93
2018-06-14T05:16:11.267Z,13.86
2018-06-14T05:17:11.192Z,13.78
2018-06-14T05:18:11.120Z,13.91
2018-06-14T05:19:11.099Z,13.88
2018-06-14T05:20:11.357Z,14.00
2018-06-14T05:21:11.042Z,14.03
2018-06-14T05:22:11.044Z,14.05
2018-06-14T05:23:11.046Z,14.15
2018-06-14T05:24:10.996Z,14.09
2018-06-14T05:25:10.985Z,14.11
2018-06-14T05:27:11.290Z,14.22
2018-06-14T05:30:11.069Z,14.30
2018-06-14T05:32:10.962Z,14.55
2018-06-14T05:35:10.953Z,14.96
2018-06-14T05:42:11.306Z,15.29
2018-06-14T05:44:10.902Z,15.52
2018-06-14T05:46:10.807Z,15.40
2018-06-14T05:47:10.803Z,15.56
2018-06-14T05:48:10.760Z,15.56
2018-06-14T05:49:11.139Z,15.56
2018-06-14T05:50:10.939Z,15.58
2018-06-14T05:51:10.731Z,15.54
2018-06-14T05:52:10.765Z,15.59
2018-06-14T05:53:10.680Z,15.59
2018-06-14T05:54:10.707Z,15.62
2018-06-14T05:55:11.047Z,15.58
2018-06-14T05:56:10.912Z,15.68
2018-06-14T05:57:10.914Z,15.70
2018-06-14T05:58:10.591Z,15.78
2018-06-14T05:59:10.652Z,15.76
2018-06-14T06:00:10.463Z,15.63
2018-06-14T06:01:10.900Z,15.68
2018-06-14T06:02:10.622Z,15.66
2018-06-14T06:03:10.553Z,15.66
2018-06-14T06:04:10.543Z,15.63
2018-06-14T06:05:10.497Z,15.70
2018-06-14T06:06:10.484Z,15.65
2018-06-14T06:07:10.917Z,15.59
2018-06-14T06:08:10.551Z,15.59
2018-06-14T06:09:10.423Z,15.60
2018-06-14T06:10:10.468Z,15.60
2018-06-14T06:11:10.469Z,15.62
2018-06-14T06:12:10.428Z,15.65
2018-06-14T06:13:11.012Z,15.70
2018-06-14T06:14:10.547Z,15.76
2018-06-14T06:15:10.420Z,15.83
2018-06-14T06:16:10.244Z,15.81
2018-06-14T06:17:10.243Z,15.84
2018-06-14T06:18:10.218Z,15.87
2018-06-14T06:19:10.508Z,15.96
2018-06-14T06:20:10.259Z,16.02
2018-06-14T06:22:10.173Z,16.24
2018-06-14T06:23:10.256Z,16.25
2018-06-14T06:24:10.137Z,16.44
2018-06-14T06:25:10.453Z,16.37
2018-06-14T06:26:10.231Z,16.49
2018-06-14T06:27:10.105Z,16.33
2018-06-14T06:28:10.108Z,16.43
2018-06-14T06:29:10.405Z,16.46
2018-06-14T06:30:10.062Z,16.47
2018-06-14T06:31:10.520Z,16.55
2018-06-14T06:32:10.217Z,16.62
2018-06-14T06:33:10.347Z,16.65
2018-06-14T06:35:10.021Z,16.88
2018-06-14T06:36:10.622Z,16.94
2018-06-14T06:37:10.081Z,16.83
2018-06-14T06:39:10.309Z,16.62
2018-06-14T06:40:09.940Z,16.61
2018-06-14T06:41:10.027Z,16.55
2018-06-14T06:43:10.000Z,16.65
2018-06-14T06:44:09.992Z,16.70
2018-06-14T06:45:09.994Z,16.77
2018-06-14T06:46:10.356Z,16.88
2018-06-14T06:47:09.958Z,16.94
2018-06-14T06:48:09.835Z,16.77
2018-06-14T06:49:09.825Z,16.76
2018-06-14T06:50:09.822Z,16.70
2018-06-14T06:51:09.862Z,16.79
2018-06-14T06:52:09.803Z,16.90
2018-06-14T06:53:10.213Z,16.91
2018-06-14T06:54:09.764Z,16.84
2018-06-14T06:55:09.854Z,17.02
2018-06-14T06:56:09.843Z,17.20
2018-06-14T06:57:09.833Z,17.16
2018-06-14T06:58:09.815Z,17.06
2018-06-14T06:59:09.873Z,16.59
2018-06-14T07:00:09.991Z,16.65
2018-06-14T07:01:09.680Z,16.54
2018-06-14T07:03:09.708Z,16.77
2018-06-14T07:04:09.643Z,16.92
2018-06-14T07:05:09.708Z,16.99
2018-06-14T07:06:09.757Z,17.01
2018-06-14T07:07:09.922Z,17.04
2018-06-14T07:08:09.605Z,16.94
2018-06-14T07:09:09.633Z,17.01
2018-06-14T07:10:14.222Z,16.80
2018-06-14T07:11:09.580Z,16.62
2018-06-14T07:12:09.553Z,16.64
2018-06-14T07:13:09.539Z,16.70
2018-06-14T07:14:09.837Z,16.80
2018-06-14T07:15:09.573Z,16.98
2018-06-14T07:16:09.516Z,16.99
2018-06-14T07:17:09.586Z,17.04
2018-06-14T07:18:09.480Z,17.02
2018-06-14T07:19:09.593Z,17.25
2018-06-14T07:20:09.452Z,17.47
2018-06-14T07:21:09.795Z,17.56
2018-06-14T07:22:09.441Z,17.57
2018-06-14T07:24:09.430Z,17.45
2018-06-14T07:25:09.395Z,17.41
2018-06-14T07:26:09.388Z,17.59
2018-06-14T07:27:09.728Z,17.78
2018-06-14T07:28:09.374Z,17.99
2018-06-14T07:29:09.352Z,18.12
2018-06-14T07:30:09.354Z,18.15
2018-06-14T07:31:09.370Z,17.94
2018-06-14T07:32:09.326Z,17.84
2018-06-14T07:33:09.664Z,17.96
2018-06-14T07:34:09.296Z,17.88
2018-06-14T07:35:09.334Z,18.08
2018-06-14T07:36:09.283Z,18.01
2018-06-14T07:37:09.317Z,17.83
2018-06-14T07:38:09.250Z,18.17
2018-06-14T07:39:09.589Z,18.36
2018-06-14T07:41:09.215Z,18.34
2018-06-14T07:42:09.203Z,18.68
2018-06-14T07:43:09.199Z,18.58
2018-06-14T07:44:09.198Z,18.86
2018-06-14T07:45:09.529Z,19.16
2018-06-14T07:46:09.222Z,19.09
2018-06-14T07:47:09.171Z,19.30
2018-06-14T07:48:09.171Z,19.34
2018-06-14T07:50:09.185Z,19.17
2018-06-14T07:51:09.459Z,19.35
2018-06-14T07:52:09.094Z,19.53
2018-06-14T07:53:09.123Z,19.67
2018-06-14T07:54:09.143Z,19.70
2018-06-14T07:56:09.077Z,19.35
2018-06-14T07:57:09.123Z,19.42
2018-06-14T07:58:10.116Z,19.74
2018-06-14T07:59:09.028Z,19.71
2018-06-14T08:00:09.046Z,19.84
2018-06-14T08:01:09.077Z,19.72
2018-06-14T08:02:09.078Z,19.70
2018-06-14T08:03:09.067Z,20.02
2018-06-14T08:05:09.053Z,20.27
2018-06-14T08:06:09.048Z,20.05
2018-06-14T08:07:08.977Z,20.26
2018-06-14T08:08:08.928Z,20.18
2018-06-14T08:09:08.974Z,20.12
2018-06-14T08:10:09.266Z,20.07
2018-06-14T08:11:08.963Z,20.02
2018-06-14T08:12:08.931Z,20.25
2018-06-14T08:13:08.931Z,20.44
2018-06-14T08:14:09.002Z,20.36
2018-06-14T08:15:08.944Z,20.22
2018-06-14T08:16:08.882Z,20.15
2018-06-14T08:17:09.143Z,20.55
2018-06-14T08:18:08.935Z,20.74
2018-06-14T08:19:08.943Z,20.88
2018-06-14T08:20:08.818Z,20.80
2018-06-14T08:21:08.891Z,20.75
2018-06-14T08:23:09.171Z,20.52
2018-06-14T08:24:08.795Z,20.41
2018-06-14T08:25:08.772Z,20.26
2018-06-14T08:26:08.895Z,20.00
2018-06-14T08:27:08.937Z,20.37
2018-06-14T08:29:09.045Z,21.16
2018-06-14T08:30:08.739Z,21.47
2018-06-14T08:31:08.738Z,20.80
2018-06-14T08:33:08.758Z,20.17
2018-06-14T08:35:09.026Z,19.82
2018-06-14T08:36:08.756Z,19.71
2018-06-14T08:37:08.679Z,19.74
2018-06-14T08:38:08.693Z,19.90
2018-06-14T08:39:08.758Z,19.93
2018-06-14T08:40:08.675Z,19.90
2018-06-14T08:41:08.691Z,20.02
2018-06-14T08:42:08.949Z,20.02
2018-06-14T08:43:08.651Z,20.07
2018-06-14T08:44:08.643Z,19.94
2018-06-14T08:45:09.027Z,20.17
2018-06-14T08:46:08.620Z,20.63
2018-06-14T08:47:08.644Z,20.37
2018-06-14T08:48:08.595Z,20.02
2018-06-14T08:50:08.569Z,20.02
2018-06-14T08:51:08.649Z,20.71
2018-06-14T08:52:08.568Z,20.86
2018-06-14T08:53:08.594Z,20.80
2018-06-14T08:54:08.553Z,21.38
2018-06-14T08:55:08.537Z,21.30
2018-06-14T08:56:08.835Z,21.23
2018-06-14T08:57:08.565Z,20.70
2018-06-14T08:58:08.547Z,20.74
2018-06-14T09:00:08.498Z,20.75
2018-06-14T09:01:08.585Z,21.28
2018-06-14T09:02:08.788Z,21.43
2018-06-14T09:03:08.537Z,21.88
2018-06-14T09:04:08.574Z,22.22
2018-06-14T09:05:08.511Z,22.27
2018-06-14T09:06:08.456Z,22.33
2018-06-14T09:07:08.560Z,22.27
2018-06-14T09:08:08.871Z,21.80
2018-06-14T09:09:08.642Z,21.85
2018-06-14T09:10:08.532Z,21.98
2018-06-14T09:11:08.653Z,21.58
2018-06-14T09:12:08.515Z,21.40
2018-06-14T09:13:08.546Z,21.43
2018-06-14T09:14:08.828Z,21.97
2018-06-14T09:16:08.392Z,21.75
2018-06-14T09:18:10.609Z,22.33
2018-06-14T09:19:15.058Z,22.85
2018-06-14T09:20:16.786Z,23.03
2018-06-14T09:21:08.381Z,22.78
2018-06-14T09:24:08.340Z,22.96
2018-06-14T09:25:08.648Z,22.98
2018-06-14T09:26:08.394Z,22.88
2018-06-14T09:27:08.333Z,23.03
2018-06-14T09:28:08.325Z,23.23
2018-06-14T09:29:08.680Z,23.28
2018-06-14T09:30:08.352Z,23.84
2018-06-14T09:31:08.644Z,23.96
2018-06-14T09:32:08.358Z,24.31
2018-06-14T09:33:08.311Z,24.22
2018-06-14T09:34:08.300Z,23.23
2018-06-14T09:35:08.417Z,23.21
2018-06-14T09:36:08.304Z,23.51
2018-06-14T09:37:08.660Z,23.92
2018-06-14T09:38:08.340Z,24.15
2018-06-14T09:39:08.286Z,23.88
2018-06-14T09:40:08.289Z,24.06
2018-06-14T09:41:08.306Z,23.52
2018-06-14T09:42:08.305Z,23.36
2018-06-14T09:43:08.629Z,23.52
2018-06-14T09:44:08.355Z,23.70
2018-06-14T09:45:08.268Z,23.64
2018-06-14T09:46:08.267Z,23.31
2018-06-14T09:47:08.267Z,23.46
2018-06-14T09:48:08.263Z,23.21
2018-06-14T09:49:08.265Z,23.46
2018-06-14T09:50:08.633Z,23.26
2018-06-14T09:51:08.259Z,23.49
2018-06-14T09:52:08.265Z,23.66
2018-06-14T09:53:08.255Z,23.91
2018-06-14T09:54:08.251Z,23.66
2018-06-14T09:55:08.266Z,23.48
2018-06-14T09:56:08.299Z,23.22
2018-06-14T09:57:08.550Z,23.70
2018-06-14T09:58:08.251Z,23.52
2018-06-14T09:59:08.312Z,23.03
2018-06-14T10:00:08.246Z,23.26
2018-06-14T10:01:08.318Z,23.69
2018-06-14T10:02:09.058Z,24.22
2018-06-14T10:03:08.330Z,24.28
2018-06-14T10:04:08.547Z,24.47
2018-06-14T10:05:08.239Z,24.74
2018-06-14T10:06:08.306Z,24.96
2018-06-14T10:07:08.253Z,24.97
2018-06-14T10:08:08.274Z,25.14
2018-06-14T10:09:08.223Z,25.28
2018-06-14T10:10:08.235Z,25.06
2018-06-14T10:11:08.526Z,24.97
2018-06-14T10:12:08.237Z,24.85
2018-06-14T10:13:08.216Z,24.96
2018-06-14T10:14:08.271Z,24.65
2018-06-14T10:15:08.228Z,24.86
2018-06-14T10:16:08.232Z,24.89
2018-06-14T10:17:08.227Z,24.71
2018-06-14T10:18:08.525Z,24.79
2018-06-14T10:19:08.269Z,25.08
2018-06-14T10:21:08.259Z,25.21
2018-06-14T10:22:08.343Z,25.30
2018-06-14T10:23:08.211Z,25.59
2018-06-14T10:24:08.206Z,24.94
2018-06-14T10:25:08.510Z,25.04
2018-06-14T10:26:08.225Z,25.15
2018-06-14T10:27:08.257Z,24.96
2018-06-14T10:28:08.211Z,24.70
2018-06-14T10:29:08.207Z,24.08
2018-06-14T10:30:08.206Z,24.33
2018-06-14T10:31:08.212Z,24.41
2018-06-14T10:32:08.506Z,24.26
2018-06-14T10:33:08.363Z,24.85
2018-06-14T10:34:08.207Z,25.18
2018-06-14T10:35:08.215Z,25.22
2018-06-14T10:36:08.211Z,25.68
2018-06-14T10:37:08.212Z,25.68
2018-06-14T10:38:08.508Z,25.66
2018-06-14T10:39:08.285Z,25.68
2018-06-14T10:40:08.207Z,25.43
2018-06-14T10:41:08.415Z,25.56
2018-06-14T10:42:08.368Z,25.36
2018-06-14T10:43:08.211Z,25.11
2018-06-14T10:44:08.587Z,25.41
2018-06-14T10:45:08.264Z,25.81
2018-06-14T10:46:08.216Z,25.55
2018-06-14T10:47:08.208Z,25.12
2018-06-14T10:48:08.234Z,25.56
2018-06-14T10:49:08.211Z,26.21
2018-06-14T10:50:08.524Z,26.38
2018-06-14T10:51:08.259Z,25.43
2018-06-14T10:52:08.259Z,25.23
2018-06-14T10:53:08.236Z,25.46
2018-06-14T10:54:08.224Z,25.73
2018-06-14T10:55:08.306Z,26.36
2018-06-14T10:56:08.596Z,25.58
2018-06-14T10:57:08.306Z,25.06
2018-06-14T10:58:08.237Z,25.11
2018-06-14T10:59:08.215Z,24.74
2018-06-14T11:00:08.219Z,25.11
2018-06-14T11:01:08.225Z,25.96
2018-06-14T11:02:08.267Z,25.82
2018-06-14T11:03:08.583Z,24.53
2018-06-14T11:04:08.397Z,22.98
2018-06-14T11:05:08.232Z,22.38
2018-06-14T11:06:08.227Z,22.18
2018-06-14T11:07:08.219Z,21.94
2018-06-14T11:08:08.441Z,21.82
2018-06-14T11:09:08.596Z,21.66
2018-06-14T11:10:08.247Z,21.53
2018-06-14T11:11:08.258Z,21.74
2018-06-14T11:12:08.257Z,21.85
2018-06-14T11:13:08.276Z,21.84
2018-06-14T11:14:08.253Z,21.96
2018-06-14T11:15:08.597Z,22.06
2018-06-14T11:16:09.278Z,21.84
2018-06-14T11:17:08.211Z,21.51
2018-06-14T11:18:08.369Z,21.62
2018-06-14T11:19:08.307Z,21.47
2018-06-14T11:20:08.211Z,21.22
2018-06-14T11:21:08.645Z,21.14
2018-06-14T11:22:08.211Z,21.38
2018-06-14T11:23:11.337Z,22.06
2018-06-14T11:24:08.191Z,22.15
2018-06-14T11:25:08.211Z,22.31
2018-06-14T11:26:08.211Z,22.22
2018-06-14T11:27:08.405Z,22.12
2018-06-14T11:28:08.164Z,21.91
2018-06-14T11:29:08.148Z,21.51
2018-06-14T11:30:08.549Z,21.18
2018-06-14T11:31:08.168Z,21.18
2018-06-14T11:32:08.219Z,21.44
2018-06-14T11:33:09.075Z,21.20
2018-06-14T11:34:08.413Z,20.97
2018-06-14T11:35:08.506Z,21.00
2018-06-14T11:37:08.403Z,21.20
2018-06-14T11:38:08.112Z,20.90
2018-06-14T11:39:08.164Z,20.97
2018-06-14T11:40:08.478Z,21.07
2018-06-14T11:41:08.184Z,20.86
2018-06-14T11:42:08.164Z,21.07
2018-06-14T11:44:08.135Z,21.11
2018-06-14T11:45:08.177Z,21.16
2018-06-14T11:46:08.066Z,21.18
2018-06-14T11:47:08.422Z,21.11
2018-06-14T11:48:08.127Z,21.38
2018-06-14T11:49:08.167Z,22.11
2018-06-14T11:50:08.127Z,22.00
2018-06-14T11:51:08.198Z,22.62
2018-06-14T11:52:08.072Z,23.13
2018-06-14T11:53:08.163Z,24.06
2018-06-14T11:55:08.362Z,24.66
2018-06-14T11:56:08.078Z,24.99
2018-06-14T11:57:08.036Z,25.53
2018-06-14T11:58:08.067Z,26.01
2018-06-14T11:59:08.115Z,25.71
2018-06-14T12:00:08.021Z,24.55
2018-06-14T12:01:07.997Z,23.73
2018-06-14T12:02:08.259Z,23.11
2018-06-14T12:03:08.020Z,22.68
2018-06-14T12:04:08.924Z,22.27
2018-06-14T12:05:07.923Z,22.12
2018-06-14T12:06:07.973Z,21.77
2018-06-14T12:07:08.032Z,21.78
2018-06-14T12:08:07.925Z,21.77
2018-06-14T12:09:08.327Z,21.82
2018-06-14T12:10:07.923Z,21.60
2018-06-14T12:11:07.912Z,22.28
2018-06-14T12:12:07.974Z,23.25
2018-06-14T12:13:07.923Z,24.22
2018-06-14T12:14:07.926Z,24.82
2018-06-14T12:15:08.027Z,25.48
2018-06-14T12:16:08.213Z,26.01
2018-06-14T12:17:07.926Z,26.38
2018-06-14T12:18:07.887Z,25.82
2018-06-14T12:19:08.070Z,24.38
2018-06-14T12:20:07.875Z,23.67
2018-06-14T12:21:07.923Z,23.13
2018-06-14T12:22:08.215Z,23.11
2018-06-14T12:23:07.972Z,24.31
2018-06-14T12:24:08.164Z,24.94
2018-06-14T12:25:08.020Z,24.71
2018-06-14T12:26:07.877Z,25.03
2018-06-14T12:28:08.310Z,24.75
2018-06-14T12:29:08.163Z,23.48
2018-06-14T12:30:08.164Z,22.77
2018-06-14T12:31:08.041Z,22.56
2018-06-14T12:32:08.115Z,22.43
2018-06-14T12:33:08.083Z,22.55
2018-06-14T12:34:08.269Z,23.29
2018-06-14T12:35:07.972Z,23.92
2018-06-14T12:36:08.088Z,23.73
2018-06-14T12:37:08.316Z,24.97
2018-06-14T12:38:07.831Z,24.65
2018-06-14T12:40:08.213Z,24.28
2018-06-14T12:41:07.827Z,25.00
2018-06-14T12:42:07.828Z,25.27
2018-06-14T12:43:07.840Z,25.67
2018-06-14T12:44:07.823Z,25.75
2018-06-14T12:46:08.259Z,25.58
2018-06-14T12:47:07.821Z,25.43
2018-06-14T12:48:08.123Z,25.15
2018-06-14T12:49:07.780Z,24.59
2018-06-14T12:50:07.782Z,24.04
2018-06-14T12:51:07.831Z,23.51
2018-06-14T12:52:08.259Z,23.07
2018-06-14T12:53:07.885Z,24.33
2018-06-14T12:54:07.779Z,24.07
2018-06-14T12:55:07.769Z,23.33
2018-06-14T12:56:07.827Z,22.96
2018-06-14T12:57:07.758Z,23.01
2018-06-14T12:58:08.163Z,23.61
2018-06-14T13:01:07.805Z,24.85
2018-06-14T13:02:07.779Z,24.07
2018-06-14T13:03:07.908Z,24.37
2018-06-14T13:04:08.113Z,24.29
2018-06-14T13:06:09.316Z,23.64
2018-06-14T13:07:07.733Z,23.42
2018-06-14T13:08:07.729Z,23.14
2018-06-14T13:09:07.795Z,22.96
2018-06-14T13:10:07.827Z,22.93
2018-06-14T13:11:08.128Z,22.93
2018-06-14T13:12:07.709Z,22.98
2018-06-14T13:13:07.794Z,23.08
2018-06-14T13:14:07.720Z,24.44
2018-06-14T13:15:07.828Z,25.43
2018-06-14T13:16:07.876Z,26.39
2018-06-14T13:17:07.827Z,26.65
2018-06-14T13:18:08.084Z,26.26
2018-06-14T13:19:07.833Z,25.45
2018-06-14T13:20:07.786Z,24.81
2018-06-14T13:21:07.786Z,24.28
2018-06-14T13:22:07.834Z,23.92
2018-06-14T13:23:07.783Z,24.84
2018-06-14T13:24:08.074Z,24.85
2018-06-14T13:25:07.792Z,23.98
2018-06-14T13:26:07.779Z,24.82
2018-06-14T13:27:07.786Z,24.43
2018-06-14T13:28:07.787Z,24.10
2018-06-14T13:29:07.683Z,24.38
2018-06-14T13:30:07.684Z,24.52
2018-06-14T13:32:07.970Z,24.85
2018-06-14T13:33:07.683Z,24.97
2018-06-14T13:34:07.730Z,24.29
2018-06-14T13:35:07.640Z,23.88
2018-06-14T13:36:07.700Z,23.64
2018-06-14T13:37:07.730Z,23.74
2018-06-14T13:38:08.024Z,23.25
2018-06-14T13:39:08.651Z,23.33
2018-06-14T13:40:08.835Z,23.33
2018-06-14T13:41:09.843Z,24.60
2018-06-14T13:42:10.731Z,24.99
2018-06-14T13:43:07.778Z,24.38
2018-06-14T13:44:07.922Z,24.23
2018-06-14T13:45:07.634Z,24.59
2018-06-14T13:46:07.682Z,24.60
2018-06-14T13:47:07.670Z,23.79
2018-06-14T13:48:07.635Z,23.88
2018-06-14T13:49:07.782Z,23.59
2018-06-14T13:50:08.067Z,23.76
2018-06-14T13:51:07.634Z,24.37
2018-06-14T13:52:07.736Z,24.65
2018-06-14T13:53:07.591Z,24.91
2018-06-14T13:54:07.732Z,25.46
2018-06-14T13:55:07.731Z,25.82
2018-06-14T13:56:08.217Z,25.41
2018-06-14T13:58:08.306Z,24.56
2018-06-14T13:59:07.656Z,24.43
2018-06-14T14:00:07.587Z,24.37
2018-06-14T14:01:07.775Z,24.16
2018-06-14T14:02:07.877Z,24.00
2018-06-14T14:03:07.979Z,23.64
2018-06-14T14:04:07.705Z,23.55
2018-06-14T14:05:07.695Z,24.23
2018-06-14T14:07:08.162Z,24.33
2018-06-14T14:08:08.020Z,24.16
2018-06-14T14:09:07.839Z,23.89
2018-06-14T14:11:08.259Z,23.67
2018-06-14T14:12:08.163Z,24.37
2018-06-14T14:13:07.538Z,24.91
2018-06-14T14:14:07.827Z,25.51
2018-06-14T14:15:07.635Z,25.92
2018-06-14T14:16:07.540Z,26.08